Search for airport 
image banner adimage banner ad
image banner ad

EVOC - Old City Heliport

Located in , Latvia

ICAO - , IATA -

Data provided by Airmate  

General information

Coordinates: N56°57'24" E24°5'45"
Elevation is feet MSL.
 
View others Airports in Riga (city)

Operational data

Open for public use
Current time UTC:
Current local time:
Weather at : EVRA - Riga ( 8 km )
METAR: EVRA 290150Z 18003KT CAVOK 11/10 Q1018 NOSIG
TAF: TAF EVRA 282300Z 2900/2924 20007KT 9999 OVC020 TEMPO 2900/2906 3000 BR BKN002 PROB40 TEMPO 2902/2906 0700 FG BKN001 BECMG 2907/2909 SCT030 TEMPO 2921/2924 3000 BR
View NOTAMs / SUP AIP / TFR affecting this airport [VIEW]
Communications frequencies: [VIEW]

Runways:

Airport contact information

Address: Latvia

Satellite view of EVOC